createdAt,value
2018-05-18T00:02:03.523Z,14.60
2018-05-18T00:07:04.995Z,27.53
2018-05-18T00:12:06.456Z,26.87
2018-05-18T00:17:07.944Z,18.20
2018-05-18T00:22:09.465Z,20.47
2018-05-18T00:27:10.972Z,29.87
2018-05-18T00:32:19.442Z,42.40
2018-05-18T00:37:20.928Z,17.93
2018-05-18T00:42:22.361Z,20.67
2018-05-18T00:47:23.861Z,20.73
2018-05-18T00:52:26.115Z,22.17
2018-05-18T00:57:27.580Z,25.00
2018-05-18T01:02:29.081Z,23.87
2018-05-18T01:07:30.613Z,33.17
2018-05-18T01:12:32.114Z,28.73
2018-05-18T01:17:33.558Z,37.27
2018-05-18T01:22:35.099Z,22.07
2018-05-18T01:27:36.623Z,28.07
2018-05-18T01:32:38.922Z,22.93
2018-05-18T01:37:41.185Z,22.87
2018-05-18T01:42:42.694Z,27.63
2018-05-18T01:47:44.289Z,29.73
2018-05-18T01:52:45.815Z,30.93
2018-05-18T01:57:47.369Z,33.83
2018-05-18T02:02:49.688Z,38.13
2018-05-18T02:07:51.169Z,28.93
2018-05-18T02:12:52.714Z,32.33
2018-05-18T02:17:54.207Z,36.00
2018-05-18T02:22:56.393Z,37.40
2018-05-18T02:27:57.851Z,38.77
2018-05-18T02:32:59.392Z,35.60
2018-05-18T02:38:00.866Z,33.30
2018-05-18T02:43:02.329Z,30.43
2018-05-18T02:48:03.976Z,46.23
2018-05-18T02:53:06.255Z,31.80
2018-05-18T02:58:08.504Z,35.77
2018-05-18T03:03:10.076Z,40.83
2018-05-18T03:08:11.516Z,43.20
2018-05-18T03:13:13.037Z,49.20
2018-05-18T03:18:15.292Z,39.70
2018-05-18T03:23:16.804Z,36.53
2018-05-18T03:28:19.050Z,36.90
2018-05-18T03:33:20.572Z,48.50
2018-05-18T03:38:22.136Z,48.80
2018-05-18T03:43:23.689Z,50.67
2018-05-18T03:48:25.981Z,45.93
2018-05-18T03:53:27.501Z,52.73
2018-05-18T03:58:29.016Z,46.20
2018-05-18T04:03:49.759Z,50.43
2018-05-18T04:08:53.292Z,43.70
2018-05-18T04:13:54.773Z,56.57
2018-05-18T04:18:56.568Z,49.87
2018-05-18T04:23:58.887Z,48.30
2018-05-18T04:29:07.535Z,54.77
2018-05-18T04:34:09.111Z,53.77
2018-05-18T04:39:10.620Z,58.23
2018-05-18T04:44:12.143Z,47.13
2018-05-18T04:49:13.688Z,56.40
2018-05-18T04:54:15.178Z,51.13
2018-05-18T04:59:16.719Z,47.40
2018-05-18T05:04:18.252Z,43.87
2018-05-18T05:09:20.044Z,57.77
2018-05-18T05:14:22.280Z,52.00
2018-05-18T05:19:23.828Z,61.23
2018-05-18T05:24:25.373Z,53.60
2018-05-18T05:29:26.828Z,47.70
2018-05-18T05:34:29.103Z,47.90
2018-05-18T05:39:30.703Z,58.17
2018-05-18T05:44:32.166Z,46.10
2018-05-18T05:49:33.702Z,44.20
2018-05-18T05:54:35.154Z,50.20
2018-05-18T05:59:36.701Z,56.30
2018-05-18T06:04:38.270Z,42.93
2018-05-18T06:09:40.015Z,56.00
2018-05-18T06:14:41.511Z,38.80
2018-05-18T06:19:43.041Z,44.47
2018-05-18T06:24:45.247Z,50.27
2018-05-18T06:29:46.877Z,44.83
2018-05-18T06:34:49.202Z,49.77
2018-05-18T06:39:50.651Z,45.53
2018-05-18T06:44:52.388Z,45.40
2018-05-18T06:49:53.925Z,46.43
2018-05-18T06:54:55.460Z,33.83
2018-05-18T06:59:56.985Z,41.03
2018-05-18T07:04:58.517Z,47.90
2018-05-18T07:10:00.119Z,44.67
2018-05-18T07:15:01.671Z,49.37
2018-05-18T07:20:03.198Z,39.90
2018-05-18T07:25:04.730Z,40.00
2018-05-18T07:30:06.293Z,37.57
2018-05-18T07:35:07.763Z,40.73
2018-05-18T07:40:09.328Z,44.10
2018-05-18T07:45:10.853Z,34.63
2018-05-18T07:50:12.445Z,46.00
2018-05-18T07:55:14.581Z,30.97
2018-05-18T08:00:17.062Z,35.17
2018-05-18T08:05:19.315Z,29.57
2018-05-18T08:10:20.854Z,42.33
2018-05-18T08:15:22.411Z,33.43
2018-05-18T08:20:23.920Z,36.17
2018-05-18T08:25:25.472Z,43.90
2018-05-18T08:30:27.036Z,27.83
2018-05-18T08:35:28.564Z,40.17
2018-05-18T08:40:30.102Z,28.90
2018-05-18T08:45:31.665Z,35.40
2018-05-18T08:50:33.195Z,29.33
2018-05-18T08:55:34.759Z,34.10
2018-05-18T09:00:36.335Z,40.03
2018-05-18T09:05:38.639Z,40.90
2018-05-18T09:10:40.172Z,32.43
2018-05-18T09:15:41.723Z,36.30
2018-05-18T09:20:43.262Z,28.47
2018-05-18T09:25:44.791Z,44.93
2018-05-18T09:30:46.332Z,44.90
2018-05-18T09:35:47.863Z,41.13
2018-05-18T09:40:49.372Z,38.63
2018-05-18T09:45:50.910Z,41.23
2018-05-18T09:50:52.436Z,37.93
2018-05-18T09:55:53.972Z,44.20
2018-05-18T10:00:55.474Z,38.60
2018-05-18T10:05:57.063Z,50.20
2018-05-18T10:10:58.587Z,34.93
2018-05-18T10:16:00.112Z,40.10
2018-05-18T10:21:02.361Z,36.07
2018-05-18T10:26:03.965Z,40.77
2018-05-18T10:31:05.456Z,43.93
2018-05-18T10:36:07.011Z,36.93
2018-05-18T10:41:09.372Z,35.20
2018-05-18T10:46:10.876Z,46.17
2018-05-18T10:51:13.144Z,28.93
2018-05-18T10:56:15.379Z,32.80
2018-05-18T11:01:17.008Z,48.40
2018-05-18T11:06:19.325Z,36.00
2018-05-18T11:11:20.844Z,36.50
2018-05-18T11:16:22.486Z,36.00
2018-05-18T11:21:24.044Z,38.30
2018-05-18T11:26:25.610Z,38.47
2018-05-18T11:31:27.826Z,34.00
2018-05-18T11:36:29.386Z,33.60
2018-05-18T11:41:30.884Z,46.83
2018-05-18T11:46:33.143Z,38.90
2018-05-18T11:51:34.710Z,32.20
2018-05-18T11:56:36.248Z,30.07
2018-05-18T12:01:37.699Z,34.70
2018-05-18T12:06:39.284Z,38.10
2018-05-18T12:11:40.843Z,30.77
2018-05-18T12:16:42.390Z,34.90
2018-05-18T12:21:43.932Z,39.77
2018-05-18T12:26:46.208Z,35.50
2018-05-18T12:31:47.730Z,38.93
2018-05-18T12:36:49.275Z,36.50
2018-05-18T12:41:51.525Z,45.50
2018-05-18T12:46:53.009Z,35.77
2018-05-18T12:51:55.381Z,36.63
2018-05-18T12:56:56.905Z,38.57
2018-05-18T13:01:58.490Z,46.40
2018-05-18T13:07:00.068Z,40.60
2018-05-18T13:12:01.649Z,49.90
2018-05-18T13:17:03.209Z,44.07
2018-05-18T13:22:04.925Z,53.10
2018-05-18T13:27:07.212Z,65.60
2018-05-18T13:32:08.741Z,57.63
2018-05-18T13:37:10.277Z,55.53
2018-05-18T13:42:11.849Z,49.70
2018-05-18T13:47:13.392Z,59.13
2018-05-18T13:52:14.943Z,63.03
2018-05-18T13:57:17.297Z,53.50
2018-05-18T14:02:18.679Z,50.97
2018-05-18T14:07:20.179Z,54.20
2018-05-18T14:12:21.642Z,60.03
2018-05-18T14:17:23.169Z,45.53
2018-05-18T14:22:24.733Z,41.33
2018-05-18T14:27:26.299Z,36.43
2018-05-18T14:32:27.980Z,43.70
2018-05-18T14:37:29.479Z,40.27
2018-05-18T14:42:30.989Z,39.40
2018-05-18T14:47:32.545Z,38.37
2018-05-18T14:52:34.075Z,39.07
2018-05-18T14:57:36.324Z,41.83
2018-05-18T15:02:37.835Z,35.83
2018-05-18T15:07:39.278Z,36.60
2018-05-18T15:12:40.724Z,34.17
2018-05-18T15:17:42.186Z,39.63
2018-05-18T15:22:43.615Z,32.73
2018-05-18T15:27:45.100Z,31.00
2018-05-18T15:32:46.577Z,32.80
2018-05-18T15:37:48.089Z,28.37
2018-05-18T15:42:50.422Z,32.77
2018-05-18T15:47:51.935Z,25.63
2018-05-18T15:52:54.327Z,29.20
2018-05-18T15:57:56.604Z,34.10
2018-05-18T16:02:58.908Z,27.67
2018-05-18T16:08:00.450Z,30.23
2018-05-18T16:13:02.087Z,28.77
2018-05-18T16:18:10.653Z,30.20
2018-05-18T16:23:12.183Z,25.30
2018-05-18T16:28:13.757Z,30.73
2018-05-18T16:33:15.286Z,36.70
2018-05-18T16:38:16.872Z,35.23
2018-05-18T16:43:18.427Z,28.60
2018-05-18T16:48:19.966Z,33.07
2018-05-18T16:53:22.517Z,32.90
2018-05-18T16:58:24.043Z,32.77
2018-05-18T17:03:25.588Z,28.07
2018-05-18T17:08:27.160Z,33.70
2018-05-18T17:13:29.430Z,25.47
2018-05-18T17:18:30.984Z,32.13
2018-05-18T17:23:32.618Z,31.10
2018-05-18T17:28:34.144Z,23.70
2018-05-18T17:33:35.699Z,22.13
2018-05-18T17:38:37.293Z,24.37
2018-05-18T17:43:46.501Z,25.97
2018-05-18T17:48:48.021Z,27.70
2018-05-18T17:53:49.573Z,27.40
2018-05-18T17:58:51.904Z,29.60
2018-05-18T18:03:53.459Z,34.73
2018-05-18T18:08:55.020Z,27.77
2018-05-18T18:13:56.603Z,28.90
2018-05-18T18:18:58.099Z,24.33
2018-05-18T18:23:59.671Z,31.80
2018-05-18T18:29:02.026Z,29.13
2018-05-18T18:34:03.806Z,32.43
2018-05-18T18:39:05.337Z,30.10
2018-05-18T18:44:07.610Z,30.67
2018-05-18T18:49:09.896Z,27.40
2018-05-18T18:54:12.272Z,29.17
2018-05-18T18:59:13.791Z,28.10
2018-05-18T19:04:15.373Z,34.13
2018-05-18T19:09:17.167Z,32.50
2018-05-18T19:14:18.764Z,26.23
2018-05-18T19:19:20.320Z,28.50
2018-05-18T19:24:21.926Z,30.60
2018-05-18T19:29:23.399Z,39.90
2018-05-18T19:34:24.927Z,34.10
2018-05-18T19:39:26.524Z,30.13
2018-05-18T19:44:28.287Z,32.20
2018-05-18T19:49:29.766Z,33.40
2018-05-18T19:54:31.362Z,31.83
2018-05-18T19:59:32.949Z,27.17
2018-05-18T20:04:34.494Z,36.10
2018-05-18T20:09:36.420Z,32.10
2018-05-18T20:14:38.017Z,30.50
2018-05-18T20:19:39.804Z,36.47
2018-05-18T20:24:41.387Z,30.97
2018-05-18T20:29:43.351Z,47.37
2018-05-18T20:34:45.278Z,32.30
2018-05-18T20:39:46.865Z,30.13
2018-05-18T20:44:48.560Z,30.67
2018-05-18T20:49:50.340Z,30.93
2018-05-18T20:54:52.000Z,30.90
2018-05-18T20:59:54.077Z,38.83
2018-05-18T21:04:55.764Z,30.60
2018-05-18T21:09:57.508Z,28.63
2018-05-18T21:14:59.261Z,27.63
2018-05-18T21:20:01.671Z,31.47
2018-05-18T21:25:04.218Z,30.63
2018-05-18T21:30:05.843Z,32.60
2018-05-18T21:35:08.277Z,28.30
2018-05-18T21:40:09.932Z,33.93
2018-05-18T21:45:11.521Z,30.20
2018-05-18T21:50:13.167Z,34.47
2018-05-18T21:55:15.035Z,35.90
2018-05-18T22:00:16.769Z,35.77
2018-05-18T22:05:19.032Z,27.83
2018-05-18T22:10:20.679Z,32.33
2018-05-18T22:15:22.172Z,32.40
2018-05-18T22:20:23.693Z,30.93
2018-05-18T22:25:25.211Z,33.13
2018-05-18T22:30:26.701Z,32.70
2018-05-18T22:35:29.084Z,30.33
2018-05-18T22:40:31.391Z,31.70
2018-05-18T22:45:33.161Z,32.17
2018-05-18T22:50:34.648Z,41.23
2018-05-18T22:55:36.185Z,26.30
2018-05-18T23:00:38.598Z,34.80
2018-05-18T23:05:40.127Z,33.13
2018-05-18T23:10:42.510Z,28.73
2018-05-18T23:15:45.131Z,44.40
2018-05-18T23:20:46.741Z,39.20
2018-05-18T23:25:52.504Z,36.23
2018-05-18T23:30:54.065Z,25.30
2018-05-18T23:35:56.627Z,27.27
2018-05-18T23:40:58.445Z,29.70
2018-05-18T23:45:59.962Z,29.27
2018-05-18T23:51:01.484Z,27.30
2018-05-18T23:56:03.062Z,30.70
